| time (UTC) | temp F | wind direction | speed knots | gust knots | rain 1hr in | rain 24hr in | rain mn in | humidity % | barometer mb |
| 20260507050058 | 51 | 215 | 0.0 | 1.7 | 0.00 | 0.40 | 0.00 | 90 | 1004.9 |
| 20260507044601 | 51 | 283 | 0.9 | 4.3 | 0.00 | 0.40 | 0.00 | 91 | 1005.3 |
| 20260507043059 | 51 | 0 | 0.9 | 3.5 | 0.00 | 0.40 | 0.00 | 91 | 1005.3 |
| 20260507041600 | 52 | 255 | 0.9 | 6.1 | 0.01 | 0.40 | 0.00 | 92 | 1005.2 |
| 20260507034600 | 53 | 183 | 1.7 | 5.2 | 0.01 | 0.40 | 0.40 | 92 | 1004.6 |
| 20260507033101 | 55 | 275 | 1.7 | 5.2 | 0.01 | 0.40 | 0.40 | 94 | 1004.7 |
| 20260507031600 | 56 | 229 | 0.9 | 5.2 | 0.00 | 0.39 | 0.39 | 93 | 1004.7 |
| 20260507024609 | 58 | 305 | 0.9 | 6.1 | 0.00 | 0.39 | 0.39 | 95 | 1004.1 |
| 20260507023101 | 59 | 11 | 1.7 | 3.5 | 0.00 | 0.39 | 0.39 | 96 | 1003.8 |
| 20260507021608 | 59 | 0 | 0.0 | 2.6 | 0.00 | 0.39 | 0.39 | 96 | 1003.5 |
| 20260507020114 | 59 | 0 | 0.0 | 2.6 | 0.00 | 0.39 | 0.39 | 96 | 1003.6 |
| 20260507014606 | 59 | 0 | 0.0 | 5.2 | 0.00 | 0.39 | 0.39 | 96 | 1003.9 |
| 20260507013101 | 59 | 0 | 0.0 | 1.7 | 0.00 | 0.39 | 0.39 | 96 | 1003.9 |
| 20260507011601 | 59 | 0 | 0.0 | 1.7 | 0.00 | 0.39 | 0.39 | 96 | 1003.9 |
| 20260507004608 | 59 | 207 | 0.0 | 0.9 | 0.00 | 0.39 | 0.39 | 96 | 1003.9 |
| 20260507003100 | 59 | 0 | 0.0 | 2.6 | 0.00 | 0.39 | 0.39 | 96 | 1003.9 |
| 20260507001601 | 59 | 240 | 0.0 | 2.6 | 0.01 | 0.39 | 0.39 | 96 | 1003.8 |
| 20260507000101 | 59 | 0 | 0.9 | 5.2 | 0.01 | 0.39 | 0.39 | 96 | 1003.7 |
| 20260506234559 | 59 | 126 | 0.9 | 3.5 | 0.01 | 0.39 | 0.39 | 95 | 1003.5 |
| 20260506233112 | 59 | 91 | 0.0 | 3.5 | 0.01 | 0.39 | 0.39 | 95 | 1003.4 |
| 20260506231602 | 59 | 0 | 0.0 | 2.6 | 0.00 | 0.38 | 0.38 | 95 | 1003.7 |
| 20260506230059 | 59 | 113 | 0.9 | 2.6 | 0.00 | 0.38 | 0.38 | 95 | 1003.7 |
| 20260506224600 | 60 | 94 | 0.9 | 7.0 | 0.04 | 0.38 | 0.38 | 95 | 1003.7 |
| 20260506223059 | 59 | 135 | 0.9 | 4.3 | 0.06 | 0.38 | 0.38 | 95 | 1003.9 |
| 20260506221612 | 60 | 265 | 0.9 | 3.5 | 0.09 | 0.38 | 0.38 | 95 | 1004.0 |
| 20260506220100 | 59 | 257 | 0.9 | 3.5 | 0.12 | 0.38 | 0.38 | 95 | 1004.2 |
| 20260506214559 | 60 | 197 | 1.7 | 4.3 | 0.10 | 0.34 | 0.34 | 95 | 1004.4 |
| 20260506213120 | 60 | 9 | 0.9 | 4.3 | 0.10 | 0.32 | 0.32 | 94 | 1004.5 |
| 20260506211558 | 61 | 177 | 1.7 | 4.3 | 0.12 | 0.29 | 0.29 | 95 | 1004.6 |
| 20260506210101 | 61 | 154 | 0.0 | 3.5 | 0.11 | 0.26 | 0.26 | 95 | 1004.5 |
| 20260506204556 | 61 | 136 | 0.0 | 3.5 | 0.09 | 0.24 | 0.24 | 95 | 1004.7 |
| 20260506203100 | 62 | 132 | 0.9 | 5.2 | 0.08 | 0.22 | 0.22 | 95 | 1004.7 |
| 20260506201559 | 62 | 135 | 0.0 | 2.6 | 0.04 | 0.17 | 0.17 | 95 | 1004.7 |
| 20260506200059 | 62 | 140 | 0.0 | 0.9 | 0.04 | 0.15 | 0.15 | 95 | 1004.8 |
| 20260506194601 | 62 | 128 | 0.0 | 0.9 | 0.06 | 0.15 | 0.15 | 94 | 1004.6 |
| 20260506193100 | 62 | 0 | 0.0 | 0.9 | 0.07 | 0.14 | 0.14 | 94 | 1004.5 |
| 20260506191557 | 62 | 187 | 0.0 | 1.7 | 0.09 | 0.13 | 0.13 | 93 | 1004.9 |
| 20260506190101 | 62 | 0 | 0.0 | 0.9 | 0.11 | 0.11 | 0.11 | 92 | 1005.2 |
| 20260506184603 | 62 | 271 | 0.0 | 0.9 | 0.09 | 0.09 | 0.09 | 92 | 1005.5 |
| 20260506183105 | 62 | 225 | 0.0 | 1.7 | 0.07 | 0.07 | 0.07 | 91 | 1005.4 |
| 20260506181623 | 64 | 0 | 0.0 | 3.5 | 0.04 | 0.04 | 0.04 | 88 | 1005.4 |
| 20260506180058 | 68 | 269 | 1.7 | 5.2 | 0.00 | 0.00 | 0.00 | 73 | 1005.6 |
| 20260506174558 | 71 | 307 | 1.7 | 10.4 | 0.00 | 0.00 | 0.00 | 60 | 1004.9 |
| 20260506173108 | 72 | 232 | 3.5 | 10.4 | 0.00 | 0.00 | 0.00 | 58 | 1005.0 |
| 20260506171605 | 73 | 219 | 2.6 | 9.6 | 0.00 | 0.00 | 0.00 | 58 | 1005.2 |
| 20260506170109 | 73 | 131 | 2.6 | 10.4 | 0.00 | 0.00 | 0.00 | 59 | 1005.4 |
| 20260506164614 | 72 | 227 | 2.6 | 8.7 | 0.00 | 0.00 | 0.00 | 61 | 1005.6 |
| 20260506163112 | 72 | 199 | 1.7 | 9.6 | 0.00 | 0.00 | 0.00 | 61 | 1005.9 |
| 20260506161601 | 72 | 228 | 1.7 | 9.6 | 0.00 | 0.00 | 0.00 | 61 | 1006.3 |
| 20260506160110 | 71 | 272 | 0.9 | 7.0 | 0.00 | 0.00 | 0.00 | 62 | 1006.7 |
| 20260506154604 | 71 | 112 | 2.6 | 9.6 | 0.00 | 0.00 | 0.00 | 62 | 1006.8 |
| 20260506153115 | 72 | 257 | 2.6 | 7.8 | 0.00 | 0.00 | 0.00 | 61 | 1007.1 |
| 20260506151610 | 71 | 145 | 1.7 | 5.2 | 0.00 | 0.00 | 0.00 | 65 | 1007.2 |
| 20260506144613 | 68 | 138 | 1.7 | 7.0 | 0.00 | 0.00 | 0.00 | 68 | 1007.2 |
| 20260506143057 | 69 | 136 | 1.7 | 9.6 | 0.00 | 0.00 | 0.00 | 69 | 1007.3 |
| 20260506141558 | 68 | 0 | 0.9 | 6.1 | 0.00 | 0.00 | 0.00 | 70 | 1007.0 |
| 20260506140105 | 67 | 210 | 1.7 | 8.7 | 0.00 | 0.00 | 0.00 | 71 | 1007.3 |
| 20260506134558 | 67 | 3 | 0.9 | 5.2 | 0.00 | 0.00 | 0.00 | 72 | 1007.3 |
| 20260506133058 | 66 | 233 | 1.7 | 7.0 | 0.00 | 0.00 | 0.00 | 72 | 1007.5 |
| 20260506131559 | 66 | 215 | 0.9 | 5.2 | 0.00 | 0.00 | 0.00 | 73 | 1007.4 |
| 20260506130103 | 67 | 60 | 1.7 | 4.3 | 0.00 | 0.00 | 0.00 | 72 | 1007.5 |
| 20260506124608 | 65 | 238 | 0.9 | 3.5 | 0.00 | 0.00 | 0.00 | 74 | 1007.3 |
| 20260506123101 | 65 | 179 | 1.7 | 5.2 | 0.00 | 0.00 | 0.00 | 74 | 1007.3 |
| 20260506121559 | 64 | 234 | 0.9 | 6.1 | 0.00 | 0.00 | 0.00 | 75 | 1007.6 |
| 20260506120100 | 63 | 217 | 0.9 | 4.3 | 0.00 | 0.00 | 0.00 | 77 | 1007.8 |
| 20260506114607 | 62 | 229 | 0.0 | 4.3 | 0.00 | 0.00 | 0.00 | 78 | 1007.9 |
| 20260506113059 | 62 | 203 | 0.0 | 3.5 | 0.00 | 0.00 | 0.00 | 78 | 1008.1 |
| 20260506111558 | 61 | 0 | 0.0 | 1.7 | 0.00 | 0.00 | 0.00 | 79 | 1008.1 |
| 20260506104606 | 60 | 0 | 0.0 | 3.5 | 0.00 | 0.00 | 0.00 | 81 | 1008.1 |
| 20260506103059 | 60 | 0 | 0.0 | 1.7 | 0.00 | 0.00 | 0.00 | 81 | 1008.1 |
| 20260506101559 | 59 | 220 | 0.0 | 1.7 | 0.00 | 0.00 | 0.00 | 81 | 1008.0 |
| 20260506100058 | 59 | 0 | 0.0 | 4.3 | 0.00 | 0.00 | 0.00 | 81 | 1008.3 |
| 20260506094559 | 59 | 0 | 0.0 | 4.3 | 0.00 | 0.00 | 0.00 | 81 | 1008.0 |
| 20260506093059 | 59 | 0 | 0.0 | 2.6 | 0.00 | 0.00 | 0.00 | 80 | 1008.1 |
| 20260506091601 | 59 | 0 | 0.0 | 2.6 | 0.00 | 0.00 | 0.00 | 80 | 1007.9 |
| 20260506090104 | 59 | 0 | 0.0 | 2.6 | 0.00 | 0.00 | 0.00 | 80 | 1007.9 |
| 20260506084606 | 59 | 0 | 0.0 | 2.6 | 0.00 | 0.00 | 0.00 | 78 | 1007.9 |
| 20260506083059 | 59 | 0 | 0.0 | 1.7 | 0.00 | 0.00 | 0.00 | 78 | 1007.9 |
| 20260506081600 | 59 | 101 | 0.0 | 0.9 | 0.00 | 0.00 | 0.00 | 78 | 1007.9 |
| 20260506080108 | 59 | 0 | 0.0 | 0.9 | 0.00 | 0.00 | 0.00 | 76 | 1007.9 |
| 20260506073058 | 60 | 0 | 0.0 | 2.6 | 0.00 | 0.00 | 0.00 | 74 | 1007.6 |
| 20260506071606 | 61 | 121 | 0.0 | 1.7 | 0.00 | 0.00 | 0.00 | 73 | 1007.4 |
| 20260506061557 | 61 | 0 | 0.0 | 1.7 | 0.00 | 0.00 | 0.00 | 71 | 1007.4 |
| 20260506060105 | 61 | 127 | 0.0 | 1.7 | 0.00 | 0.00 | 0.00 | 71 | 1007.5 |